Time;durP1;ratioP1;P1;durP2;ratioP2;P2;SDS_P1;SDS_P2;PMS_P1;PMS_P2;Temp;Humidity;BMP_temperature;BMP_pressure;BME280_temperature;BME280_humidity;BME280_pressure;Samples;Min_cycle;Max_cycle;Signal;HPM_P1;HPM_P2
2022/02/10 00:06:36;;;;;;;0.30;0.30;;;;;;;;;;1763678;79;26396;-51
2022/02/10 00:14:50;;;;;;;0.30;0.30;;;;;;;;;;1817506;76;26365;-44
2022/02/10 00:17:05;;;;;;;0.37;0.33;;;;;;;;;;1809219;78;26605;-43
2022/02/10 00:19:44;;;;;;;0.50;0.50;;;;;;;;;;1812519;77;26668;-47
2022/02/10 00:22:10;;;;;;;0.30;0.30;;;;;;;;;;1808226;78;26833;-44
2022/02/10 00:25:26;;;;;;;0.40;0.40;;;;;;;;;;1816612;77;26296;-53
2022/02/10 00:35:38;;;;;;;0.50;0.50;;;;;;;;;;1815039;77;26397;-49
2022/02/10 00:37:57;;;;;;;0.40;0.40;;;;;;;;;;1811665;78;26500;-53
2022/02/10 00:40:20;;;;;;;0.30;0.30;;;;;;;;;;1811532;77;26284;-49
2022/02/10 00:42:48;;;;;;;0.50;0.30;;;;;;;;;;1816144;77;26355;-45
2022/02/10 00:45:15;;;;;;;0.35;0.35;;;;;;;;;;1790635;78;26229;-44
2022/02/10 00:47:55;;;;;;;0.30;0.30;;;;;;;;;;1818940;77;26325;-45
2022/02/10 00:50:22;;;;;;;0.33;0.33;;;;;;;;;;1810628;77;26396;-51
2022/02/10 00:52:55;;;;;;;1.05;0.40;;;;;;;;;;1794381;77;26296;-47
2022/02/10 00:55:24;;;;;;;1.55;0.30;;;;;;;;;;1791869;78;26432;-49
2022/02/10 00:57:48;;;;;;;0.45;0.40;;;;;;;;;;1816326;78;26377;-55
2022/02/10 01:11:07;;;;;;;0.40;0.40;;;;;;;;;;1847743;77;26750;-49
2022/02/10 01:13:43;;;;;;;0.40;0.40;;;;;;;;;;1812460;78;26414;-44
2022/02/10 01:29:40;;;;;;;0.95;0.75;;;;;;;;;;1842324;77;26225;-47
2022/02/10 01:32:06;;;;;;;0.33;0.33;;;;;;;;;;1849041;76;26847;-55
2022/02/10 01:34:37;;;;;;;0.45;0.33;;;;;;;;;;1846619;75;26279;-52
2022/02/10 01:37:02;;;;;;;0.30;0.30;;;;;;;;;;1810230;77;26364;-46
2022/02/10 01:39:34;;;;;;;0.53;0.40;;;;;;;;;;1850810;75;26707;-45
2022/02/10 02:03:40;;;;;;;0.35;0.35;;;;;;;;;;1830911;76;26318;-43
2022/02/10 02:06:12;;;;;;;0.47;0.47;;;;;;;;;;1844180;76;26266;-47
2022/02/10 02:08:39;;;;;;;0.40;0.40;;;;;;;;;;1846044;76;26271;-45
2022/02/10 02:11:07;;;;;;;0.45;0.45;;;;;;;;;;1830732;77;26303;-47
2022/02/10 02:13:34;;;;;;;1.72;0.50;;;;;;;;;;1811370;77;26325;-44
2022/02/10 02:16:02;;;;;;;0.68;0.55;;;;;;;;;;1807739;77;26814;-43
2022/02/10 02:18:29;;;;;;;0.40;0.40;;;;;;;;;;1835051;76;26297;-48
2022/02/10 02:20:57;;;;;;;0.35;0.35;;;;;;;;;;1837159;76;26337;-51
2022/02/10 02:23:25;;;;;;;1.42;0.40;;;;;;;;;;1853760;76;26288;-48
2022/02/10 02:26:00;;;;;;;2.95;0.60;;;;;;;;;;1813461;77;26771;-43
2022/02/10 02:28:24;;;;;;;1.35;0.40;;;;;;;;;;1845053;77;26261;-43
2022/02/10 02:30:57;;;;;;;0.30;0.30;;;;;;;;;;1845163;75;26267;-43
2022/02/10 03:09:04;;;;;;;0.60;0.60;;;;;;;;;;1869761;76;26173;-49
2022/02/10 03:11:27;;;;;;;0.50;0.50;;;;;;;;;;1837731;76;26312;-49
2022/02/10 03:14:07;;;;;;;0.57;0.45;;;;;;;;;;1838349;77;26737;-44
2022/02/10 04:08:29;;;;;;;1.80;0.47;;;;;;;;;;1873447;76;26330;-44
2022/02/10 04:13:37;;;;;;;0.57;0.45;;;;;;;;;;1873543;76;26798;-43
2022/02/10 04:16:09;;;;;;;2.10;0.40;;;;;;;;;;1870149;76;26385;-43
2022/02/10 04:21:11;;;;;;;0.40;0.40;;;;;;;;;;1873651;76;26416;-43
2022/02/10 04:23:43;;;;;;;0.40;0.37;;;;;;;;;;1870243;76;26318;-48
2022/02/10 04:58:55;;;;;;;0.37;0.37;;;;;;;;;;1875281;76;26828;-47
2022/02/10 05:20:51;;;;;;;0.72;0.42;;;;;;;;;;1853385;77;26377;-46
2022/02/10 05:22:37;;;;;;;0.70;0.40;;;;;;;;;;1823512;77;26207;-49
2022/02/10 05:35:41;;;;;;;1.27;0.42;;;;;;;;;;1857043;77;26339;-47
2022/02/10 05:38:11;;;;;;;0.53;0.40;;;;;;;;;;1853569;77;26796;-44
2022/02/10 05:43:26;;;;;;;0.62;0.50;;;;;;;;;;1866614;77;26279;-48
2022/02/10 05:45:47;;;;;;;0.50;0.40;;;;;;;;;;1806015;78;26323;-46
2022/02/10 05:48:37;;;;;;;0.35;0.35;;;;;;;;;;1861019;77;26668;-47
2022/02/10 05:56:17;;;;;;;0.53;0.40;;;;;;;;;;1843666;78;26698;-45
2022/02/10 05:59:13;;;;;;;0.42;0.42;;;;;;;;;;1824425;78;26245;-47
2022/02/10 06:01:48;;;;;;;0.50;0.42;;;;;;;;;;1841569;78;26305;-48
2022/02/10 06:53:11;;;;;;;0.70;0.60;;;;;;;;;;1827220;78;26214;-54
2022/02/10 07:11:53;;;;;;;0.88;0.60;;;;;;;;;;1862780;76;26389;-47
2022/02/10 07:47:37;;;;;;;1.65;0.60;;;;;;;;;;1864355;76;26936;-48
2022/02/10 07:50:08;;;;;;;1.22;0.70;;;;;;;;;;1850520;77;26666;-44
2022/02/10 08:55:30;;;;;;;0.82;0.60;;;;;;;;;;1861755;75;26272;-46
2022/02/10 08:58:22;;;;;;;0.85;0.50;;;;;;;;;;1867640;76;26775;-47
2022/02/10 09:08:42;;;;;;;1.45;0.50;;;;;;;;;;1868001;76;26932;-48
2022/02/10 09:56:58;;;;;;;0.98;0.45;;;;;;;;;;1854103;75;26289;-49
2022/02/10 09:59:51;;;;;;;0.98;0.37;;;;;;;;;;1863939;76;26719;-50
2022/02/10 10:02:15;;;;;;;0.50;0.50;;;;;;;;;;1869618;76;26329;-52
2022/02/10 10:04:47;;;;;;;1.70;0.60;;;;;;;;;;1866453;75;26739;-49
2022/02/10 10:07:30;;;;;;;0.98;0.60;;;;;;;;;;1858029;75;26613;-54
2022/02/10 10:10:46;;;;;;;1.17;0.53;;;;;;;;;;1866442;75;26725;-48
2022/02/10 10:15:26;;;;;;;1.62;0.50;;;;;;;;;;1816430;75;26212;-53
2022/02/10 10:18:03;;;;;;;0.70;0.40;;;;;;;;;;1860994;75;26252;-53
2022/02/10 10:20:36;;;;;;;0.30;0.30;;;;;;;;;;1840162;77;26800;-51
2022/02/10 10:50:30;;;;;;;0.33;0.33;;;;;;;;;;1862070;75;26401;-50
2022/02/10 10:53:10;;;;;;;0.37;0.30;;;;;;;;;;1856998;75;26322;-48
2022/02/10 10:55:39;;;;;;;4.60;0.68;;;;;;;;;;1858769;75;26914;-55
2022/02/10 10:57:57;;;;;;;0.45;0.37;;;;;;;;;;1849896;75;26319;-48
2022/02/10 11:00:56;;;;;;;2.77;0.60;;;;;;;;;;1855679;75;26754;-46
2022/02/10 11:39:28;;;;;;;3.75;0.50;;;;;;;;;;1861499;75;26276;-53
2022/02/10 12:43:36;;;;;;;1.15;0.25;;;;;;;;;;1876073;76;26291;-49
2022/02/10 13:34:13;;;;;;;0.33;0.10;;;;;;;;;;1877602;76;26291;-45
2022/02/10 14:09:12;;;;;;;0.28;0.28;;;;;;;;;;1862296;77;26284;-46
2022/02/10 14:16:57;;;;;;;0.30;0.30;;;;;;;;;;1847693;77;26343;-51
2022/02/10 14:19:39;;;;;;;0.20;0.20;;;;;;;;;;1858969;77;26406;-47
2022/02/10 14:27:22;;;;;;;0.30;0.10;;;;;;;;;;1866822;77;26355;-46
2022/02/10 14:29:49;;;;;;;0.25;0.25;;;;;;;;;;1864595;75;26287;-49
2022/02/10 14:32:19;;;;;;;0.33;0.20;;;;;;;;;;1850412;75;26240;-47
2022/02/10 14:34:48;;;;;;;0.55;0.55;;;;;;;;;;1867015;77;26264;-47
2022/02/10 14:37:30;;;;;;;0.30;0.30;;;;;;;;;;1856657;76;26779;-47
2022/02/10 14:40:03;;;;;;;0.30;0.30;;;;;;;;;;1856563;75;26380;-47
2022/02/10 15:13:28;;;;;;;0.42;0.30;;;;;;;;;;1860531;77;26284;-42
2022/02/10 15:18:29;;;;;;;1.25;0.20;;;;;;;;;;1858373;77;26274;-45
2022/02/10 15:29:24;;;;;;;0.30;0.30;;;;;;;;;;1859834;77;26231;-43
2022/02/10 15:50:27;;;;;;;0.88;0.23;;;;;;;;;;1855900;76;26318;-44
2022/02/10 16:17:06;;;;;;;1.10;0.50;;;;;;;;;;1826580;77;28340;-55
2022/02/10 16:19:34;;;;;;;0.40;0.40;;;;;;;;;;1850488;77;26299;-57
2022/02/10 16:27:31;;;;;;;0.40;0.40;;;;;;;;;;1853039;75;26844;-46
2022/02/10 16:30:05;;;;;;;0.50;0.30;;;;;;;;;;1843413;77;26272;-49
2022/02/10 16:32:29;;;;;;;0.75;0.70;;;;;;;;;;1858107;75;26406;-47
2022/02/10 16:35:01;;;;;;;1.35;0.35;;;;;;;;;;1856571;77;26769;-45
2022/02/10 16:37:27;;;;;;;1.65;0.42;;;;;;;;;;1849367;75;26276;-47
2022/02/10 16:39:54;;;;;;;0.47;0.47;;;;;;;;;;1832159;75;28614;-54
2022/02/10 16:42:22;;;;;;;0.40;0.40;;;;;;;;;;1855829;77;26236;-49
2022/02/10 16:44:51;;;;;;;0.40;0.40;;;;;;;;;;1826232;77;26275;-50
2022/02/10 16:47:18;;;;;;;0.40;0.40;;;;;;;;;;1849885;75;26357;-48
2022/02/10 16:49:49;;;;;;;0.40;0.40;;;;;;;;;;1823535;78;26663;-47
2022/02/10 16:52:22;;;;;;;1.42;0.40;;;;;;;;;;1851295;77;26759;-47
2022/02/10 16:54:50;;;;;;;0.20;0.20;;;;;;;;;;1861438;75;26319;-49
2022/02/10 16:57:33;;;;;;;0.30;0.30;;;;;;;;;;1843553;77;26334;-47
2022/02/10 17:00:06;;;;;;;0.30;0.20;;;;;;;;;;1847485;77;26435;-48
2022/02/10 17:19:01;;;;;;;0.25;0.23;;;;;;;;;;1868524;75;26271;-55
2022/02/10 17:21:27;;;;;;;0.30;0.30;;;;;;;;;;1858440;75;26281;-47
2022/02/10 17:26:44;;;;;;;0.30;0.30;;;;;;;;;;1864561;77;26273;-49
2022/02/10 17:29:09;;;;;;;0.50;0.50;;;;;;;;;;1853163;76;26747;-50
2022/02/10 17:32:07;;;;;;;0.47;0.47;;;;;;;;;;1854090;77;26272;-48
2022/02/10 17:34:49;;;;;;;0.40;0.40;;;;;;;;;;1849869;75;26756;-47
2022/02/10 17:37:26;;;;;;;0.47;0.40;;;;;;;;;;1843432;75;26491;-49
2022/02/10 17:43:02;;;;;;;0.68;0.40;;;;;;;;;;1858334;77;26231;-50
2022/02/10 17:45:37;;;;;;;1.22;0.50;;;;;;;;;;1838625;75;26300;-56
2022/02/10 17:53:27;;;;;;;0.68;0.40;;;;;;;;;;1859741;75;26272;-47
2022/02/10 17:55:54;;;;;;;0.30;0.30;;;;;;;;;;1856598;77;26783;-49
2022/02/10 17:58:22;;;;;;;0.30;0.30;;;;;;;;;;1856690;77;26330;-51
2022/02/10 18:00:52;;;;;;;2.15;0.60;;;;;;;;;;1855585;77;26005;-55
2022/02/10 18:03:19;;;;;;;0.60;0.50;;;;;;;;;;1856684;77;26869;-48
2022/02/10 18:08:41;;;;;;;1.12;0.78;;;;;;;;;;1858902;75;26245;-53
2022/02/10 18:16:31;;;;;;;1.30;0.90;;;;;;;;;;1852224;77;26322;-47
2022/02/10 18:19:03;;;;;;;2.40;0.90;;;;;;;;;;1843033;77;26375;-48
2022/02/10 18:26:29;;;;;;;4.12;1.20;;;;;;;;;;1845466;77;26630;-49
2022/02/10 18:29:01;;;;;;;4.45;1.40;;;;;;;;;;1840386;76;28550;-53
2022/02/10 19:11:03;;;;;;;3.33;0.90;;;;;;;;;;1899356;74;28179;-39
2022/02/10 19:13:30;;;;;;;1.10;0.98;;;;;;;;;;1863083;76;27458;-40
2022/02/10 19:15:57;;;;;;;4.37;1.00;;;;;;;;;;1846907;76;26272;-40
2022/02/10 19:18:24;;;;;;;4.05;1.10;;;;;;;;;;1846392;76;26237;-37
2022/02/10 19:20:52;;;;;;;3.67;0.90;;;;;;;;;;1847870;76;26242;-39
2022/02/10 19:23:19;;;;;;;6.00;1.42;;;;;;;;;;1847868;76;26313;-37
2022/02/10 19:25:46;;;;;;;2.17;1.00;;;;;;;;;;1845784;76;26269;-38
2022/02/10 19:28:14;;;;;;;5.33;2.17;;;;;;;;;;1848591;76;26257;-38
2022/02/10 19:30:41;;;;;;;11.20;4.08;;;;;;;;;;1846460;76;26294;-38
2022/02/10 19:33:12;;;;;;;14.35;5.37;;;;;;;;;;1848332;76;26324;-37
2022/02/10 19:35:51;;;;;;;15.88;5.62;;;;;;;;;;1843866;76;26310;-38
2022/02/10 19:38:08;;;;;;;14.85;6.60;;;;;;;;;;1839478;76;26286;-38
2022/02/10 19:40:39;;;;;;;14.25;5.83;;;;;;;;;;1852641;76;26916;-37
2022/02/10 19:43:06;;;;;;;22.42;6.00;;;;;;;;;;1837642;76;26336;-37
2022/02/10 19:45:33;;;;;;;18.32;5.25;;;;;;;;;;1843368;76;26355;-37
2022/02/10 19:48:01;;;;;;;19.75;4.92;;;;;;;;;;1845681;76;26253;-37
2022/02/10 19:50:30;;;;;;;14.75;4.22;;;;;;;;;;1840710;76;26277;-38
2022/02/10 19:53:01;;;;;;;20.85;4.58;;;;;;;;;;1845337;76;26266;-39
2022/02/10 19:55:28;;;;;;;18.73;4.30;;;;;;;;;;1845072;76;26798;-39
2022/02/10 19:58:02;;;;;;;16.02;3.92;;;;;;;;;;1848451;76;26287;-39
2022/02/10 20:00:31;;;;;;;18.45;4.28;;;;;;;;;;1844014;76;26873;-39
2022/02/10 20:02:55;;;;;;;17.75;3.85;;;;;;;;;;1836471;76;26322;-39
2022/02/10 20:05:25;;;;;;;13.62;3.20;;;;;;;;;;1842139;76;26864;-42
2022/02/10 20:07:52;;;;;;;9.95;3.27;;;;;;;;;;1850237;76;26748;-40
2022/02/10 20:10:19;;;;;;;13.53;2.72;;;;;;;;;;1844023;76;26270;-38
2022/02/10 20:12:47;;;;;;;13.40;3.10;;;;;;;;;;1843563;76;27000;-39
2022/02/10 20:15:14;;;;;;;11.95;3.08;;;;;;;;;;1843405;76;26693;-38
2022/02/10 20:17:43;;;;;;;11.78;2.70;;;;;;;;;;1844650;76;26677;-40
2022/02/10 20:20:11;;;;;;;10.63;2.62;;;;;;;;;;1848986;76;26710;-38
2022/02/10 20:22:39;;;;;;;10.05;2.55;;;;;;;;;;1848027;76;26246;-41
2022/02/10 20:25:07;;;;;;;6.75;1.98;;;;;;;;;;1846426;76;26325;-39
2022/02/10 20:27:35;;;;;;;8.68;2.37;;;;;;;;;;1846756;76;26699;-40
2022/02/10 20:30:04;;;;;;;13.13;2.35;;;;;;;;;;1845965;76;26288;-39
2022/02/10 20:32:31;;;;;;;11.43;2.45;;;;;;;;;;1843217;76;26678;-39
2022/02/10 20:34:58;;;;;;;10.15;1.95;;;;;;;;;;1855970;76;26650;-40
2022/02/10 20:37:26;;;;;;;12.15;2.20;;;;;;;;;;1830181;76;26343;-41
2022/02/10 20:39:53;;;;;;;7.35;2.00;;;;;;;;;;1837140;76;26362;-38
2022/02/10 20:42:21;;;;;;;6.62;1.90;;;;;;;;;;1846815;76;26690;-39
2022/02/10 20:44:54;;;;;;;9.98;1.80;;;;;;;;;;1843874;76;26827;-39
2022/02/10 20:47:20;;;;;;;5.85;1.60;;;;;;;;;;1846708;76;26328;-43
2022/02/10 20:49:47;;;;;;;4.60;1.40;;;;;;;;;;1848600;76;26694;-39
2022/02/10 20:52:15;;;;;;;6.03;1.62;;;;;;;;;;1844422;76;26284;-40
2022/02/10 20:54:43;;;;;;;5.72;1.35;;;;;;;;;;1847617;76;26250;-39
2022/02/10 20:57:10;;;;;;;5.95;1.30;;;;;;;;;;1844598;76;26253;-39
2022/02/10 20:59:40;;;;;;;2.12;1.10;;;;;;;;;;1845305;76;26343;-39
2022/02/10 21:04:42;;;;;;;2.80;1.15;;;;;;;;;;1845859;76;26267;-43
2022/02/10 21:07:17;;;;;;;4.87;1.30;;;;;;;;;;1859353;76;26674;-39
2022/02/10 21:09:48;;;;;;;4.33;1.32;;;;;;;;;;1852475;75;26324;-41
2022/02/10 21:12:12;;;;;;;1.67;1.10;;;;;;;;;;1844012;76;26333;-40
2022/02/10 21:14:39;;;;;;;3.98;1.20;;;;;;;;;;1846190;76;26353;-41
2022/02/10 21:17:14;;;;;;;1.00;1.00;;;;;;;;;;1845885;76;26269;-42
2022/02/10 21:19:36;;;;;;;1.60;1.10;;;;;;;;;;1832331;76;26383;-45
2022/02/10 21:22:11;;;;;;;2.85;1.00;;;;;;;;;;1829045;76;26210;-39
2022/02/10 21:24:38;;;;;;;2.45;0.90;;;;;;;;;;1842518;76;26737;-41
2022/02/10 21:27:26;;;;;;;1.87;0.82;;;;;;;;;;1843916;76;26261;-40
2022/02/10 21:29:34;;;;;;;1.50;0.90;;;;;;;;;;1841786;76;26390;-44
2022/02/10 21:32:01;;;;;;;1.40;0.70;;;;;;;;;;1846019;76;26344;-41
2022/02/10 21:34:33;;;;;;;2.30;0.90;;;;;;;;;;1844971;76;25675;-45
2022/02/10 21:37:03;;;;;;;0.82;0.82;;;;;;;;;;1847329;76;26277;-41
2022/02/10 21:47:24;;;;;;;2.45;0.70;;;;;;;;;;1842450;76;26362;-41
2022/02/10 21:52:49;;;;;;;2.77;0.85;;;;;;;;;;1843158;76;26340;-42
2022/02/10 22:17:06;;;;;;;0.65;0.65;;;;;;;;;;1845987;76;26868;-45
2022/02/10 22:19:22;;;;;;;0.70;0.70;;;;;;;;;;1837203;76;26262;-45
2022/02/10 22:21:57;;;;;;;3.20;0.70;;;;;;;;;;1845121;76;26276;-42
2022/02/10 22:24:24;;;;;;;0.60;0.60;;;;;;;;;;1842892;76;26310;-42
2022/02/10 22:26:53;;;;;;;2.35;0.95;;;;;;;;;;1845496;76;26689;-42
2022/02/10 22:29:32;;;;;;;1.07;0.50;;;;;;;;;;1846374;76;26332;-42
2022/02/10 22:32:04;;;;;;;0.72;0.70;;;;;;;;;;1840132;76;26354;-44
2022/02/10 22:34:33;;;;;;;0.50;0.50;;;;;;;;;;1840859;76;26262;-45
2022/02/10 22:36:58;;;;;;;0.47;0.47;;;;;;;;;;1846614;76;26270;-40
2022/02/10 22:39:24;;;;;;;2.35;0.95;;;;;;;;;;1844715;76;26285;-42
2022/02/10 22:41:51;;;;;;;0.40;0.40;;;;;;;;;;1844755;76;26298;-45
2022/02/10 22:44:19;;;;;;;1.20;0.70;;;;;;;;;;1846804;76;26301;-45
2022/02/10 22:46:47;;;;;;;0.82;0.50;;;;;;;;;;1846666;76;26670;-49
2022/02/10 22:49:15;;;;;;;0.50;0.50;;;;;;;;;;1846167;76;26280;-42
2022/02/10 22:51:42;;;;;;;1.65;0.50;;;;;;;;;;1846764;76;26235;-40
2022/02/10 22:54:13;;;;;;;1.65;0.90;;;;;;;;;;1847122;76;26231;-41
2022/02/10 22:56:39;;;;;;;3.30;0.60;;;;;;;;;;1845955;76;26706;-42
2022/02/10 22:59:08;;;;;;;0.82;0.50;;;;;;;;;;1846503;76;26239;-43
2022/02/10 23:01:36;;;;;;;0.40;0.40;;;;;;;;;;1841918;76;26708;-46
2022/02/10 23:04:04;;;;;;;1.67;0.50;;;;;;;;;;1845793;76;26214;-47
2022/02/10 23:06:31;;;;;;;0.45;0.45;;;;;;;;;;1846703;76;26269;-47
2022/02/10 23:09:23;;;;;;;0.85;0.70;;;;;;;;;;1842277;76;26306;-46
2022/02/10 23:11:31;;;;;;;0.50;0.50;;;;;;;;;;1849948;76;26782;-45
2022/02/10 23:14:00;;;;;;;0.50;0.50;;;;;;;;;;1863210;75;26339;-46
2022/02/10 23:16:28;;;;;;;0.50;0.50;;;;;;;;;;1862215;76;26743;-46
2022/02/10 23:18:56;;;;;;;0.78;0.78;;;;;;;;;;1862070;76;26249;-44
2022/02/10 23:21:24;;;;;;;0.40;0.40;;;;;;;;;;1858107;76;26263;-45
2022/02/10 23:23:51;;;;;;;0.40;0.40;;;;;;;;;;1861430;76;26277;-40
2022/02/10 23:26:20;;;;;;;0.50;0.50;;;;;;;;;;1865039;76;26269;-41
2022/02/10 23:28:52;;;;;;;0.57;0.57;;;;;;;;;;1862033;75;26366;-42
2022/02/10 23:31:21;;;;;;;0.42;0.42;;;;;;;;;;1860913;76;26297;-43
2022/02/10 23:33:55;;;;;;;0.40;0.40;;;;;;;;;;1861359;76;26322;-43
2022/02/10 23:44:02;;;;;;;0.95;0.50;;;;;;;;;;1861796;76;26678;-46
2022/02/10 23:46:30;;;;;;;0.53;0.53;;;;;;;;;;1860814;76;28597;-46
2022/02/10 23:48:58;;;;;;;0.40;0.40;;;;;;;;;;1862560;76;26237;-43
2022/02/10 23:51:30;;;;;;;0.33;0.33;;;;;;;;;;1862524;76;26563;-44
2022/02/10 23:53:54;;;;;;;0.40;0.40;;;;;;;;;;1862334;76;26839;-48
2022/02/10 23:56:26;;;;;;;0.65;0.47;;;;;;;;;;1862836;76;26329;-48
2022/02/10 23:58:57;;;;;;;0.40;0.40;;;;;;;;;;1861361;76;26600;-52
